Time;durP1;ratioP1;P1;durP2;ratioP2;P2;SDS_P1;SDS_P2;PMS_P1;PMS_P2;Temp;Humidity;BMP_temperature;BMP_pressure;BME280_temperature;BME280_humidity;BME280_pressure;Samples;Min_cycle;Max_cycle;Signal;HPM_P1;HPM_P2
2021/09/07 00:00:14;;;;;;;2.95;2.67;;;22.50;51.50;;;-147.20;100.00;58430.41;5091966;28;20051;-9
2021/09/07 00:02:40;;;;;;;2.90;2.63;;;22.50;51.50;;;-147.20;100.00;58430.41;5092097;28;20048;-9
2021/09/07 00:05:09;;;;;;;3.10;2.70;;;22.50;51.50;;;-147.20;100.00;58430.41;5091998;28;20142;-9
2021/09/07 00:07:35;;;;;;;3.40;3.10;;;22.50;51.50;;;-147.20;100.00;58430.41;5074101;28;20055;-9
2021/09/07 00:10:02;;;;;;;3.00;2.70;;;22.50;51.50;;;-147.20;100.00;58430.41;5094162;28;20131;-9
2021/09/07 00:12:28;;;;;;;3.45;2.83;;;22.50;51.50;;;-147.20;100.00;58430.41;5095637;28;20481;-9
2021/09/07 00:14:55;;;;;;;2.70;2.42;;;22.50;51.50;;;-147.20;100.00;58430.41;5095436;28;20054;-9
2021/09/07 00:17:21;;;;;;;2.50;2.30;;;22.50;51.50;;;-147.20;100.00;58430.41;5095454;28;20056;-9
2021/09/07 00:19:48;;;;;;;2.83;2.60;;;22.50;51.50;;;-147.20;100.00;58430.41;5095235;28;20047;-9
2021/09/07 00:22:14;;;;;;;3.15;2.85;;;22.60;51.60;;;-147.20;100.00;58430.41;5094446;28;20055;-9
2021/09/07 00:24:39;;;;;;;3.25;2.78;;;22.50;51.50;;;-147.20;100.00;58430.41;5095561;28;20066;-9
2021/09/07 00:27:06;;;;;;;2.90;2.70;;;22.50;51.60;;;-147.20;100.00;58430.41;5095272;28;20051;-9
2021/09/07 00:29:32;;;;;;;3.08;2.78;;;22.50;51.60;;;-147.20;100.00;58430.41;5093763;28;20393;-9
2021/09/07 00:31:58;;;;;;;3.05;2.75;;;22.50;51.60;;;-147.20;100.00;58430.41;5095342;28;20501;-9
2021/09/07 00:34:26;;;;;;;4.10;2.65;;;22.50;51.60;;;-147.20;100.00;58430.41;5077799;28;20048;-9
2021/09/07 00:36:52;;;;;;;3.47;2.72;;;22.50;51.60;;;-147.20;100.00;58430.41;5095816;28;20113;-9
2021/09/07 00:39:17;;;;;;;3.22;2.92;;;22.50;51.60;;;-147.20;100.00;58430.41;5095050;28;20055;-9
2021/09/07 00:41:43;;;;;;;3.03;2.70;;;22.50;51.60;;;-147.20;100.00;58430.41;5095181;28;20052;-9
2021/09/07 00:44:14;;;;;;;3.40;3.10;;;22.60;51.60;;;-147.20;100.00;58430.41;5095077;28;20093;-9
2021/09/07 00:46:41;;;;;;;2.60;2.40;;;22.50;51.60;;;-147.20;100.00;58430.41;5095308;28;20044;-9
2021/09/07 00:49:06;;;;;;;3.47;3.00;;;22.50;51.60;;;-147.20;100.00;58430.41;5094876;28;20528;-9
2021/09/07 00:51:34;;;;;;;2.72;2.47;;;22.50;51.60;;;-147.20;100.00;58430.41;5094921;28;20077;-9
2021/09/07 00:54:00;;;;;;;3.67;2.85;;;22.50;51.60;;;-147.20;100.00;58430.41;5094866;28;20105;-9
2021/09/07 00:56:27;;;;;;;2.50;2.30;;;22.50;51.60;;;-147.20;100.00;58430.41;5077257;28;20059;-9
2021/09/07 00:58:54;;;;;;;3.13;2.70;;;22.50;51.60;;;-147.20;100.00;58430.41;5094655;28;20052;-9
2021/09/07 01:01:20;;;;;;;3.40;2.67;;;22.50;51.60;;;-147.20;100.00;58430.41;5092385;28;20056;-9
2021/09/07 01:03:46;;;;;;;2.80;2.60;;;22.50;51.60;;;-147.20;100.00;58430.41;5094727;28;20514;-9
2021/09/07 01:06:12;;;;;;;3.00;2.70;;;22.50;51.60;;;-147.20;100.00;58430.41;5094627;28;20052;-9
2021/09/07 01:08:38;;;;;;;2.67;2.47;;;22.50;52.10;;;-147.20;100.00;58430.41;5094666;28;20417;-9
2021/09/07 01:11:05;;;;;;;2.72;2.42;;;22.50;51.60;;;-147.20;100.00;58430.41;5094689;28;20097;-9
2021/09/07 01:13:32;;;;;;;2.80;2.53;;;22.50;51.60;;;-147.20;100.00;58430.41;5094585;28;20056;-9
2021/09/07 01:16:01;;;;;;;3.00;2.67;;;22.50;51.60;;;-147.20;100.00;58430.41;5094559;28;20436;-9
2021/09/07 01:18:29;;;;;;;3.08;2.70;;;22.50;51.60;;;-147.20;100.00;58430.41;5093085;28;20401;-9
2021/09/07 01:20:55;;;;;;;2.55;2.33;;;22.50;51.60;;;-147.20;100.00;58430.41;5094224;28;20105;-9
2021/09/07 01:23:21;;;;;;;3.17;2.80;;;22.50;51.60;;;-147.20;100.00;58430.41;5094506;28;20394;-9
2021/09/07 01:25:46;;;;;;;2.75;2.55;;;22.50;51.60;;;-147.20;100.00;58430.41;5092953;28;20040;-9
2021/09/07 01:28:15;;;;;;;2.80;2.53;;;22.50;51.60;;;-147.20;100.00;58430.41;5094315;28;20043;-9
2021/09/07 01:30:42;;;;;;;2.70;2.50;;;22.50;51.60;;;-147.20;100.00;58430.41;5094319;28;20048;-9
2021/09/07 01:33:10;;;;;;;3.03;2.72;;;22.50;51.60;;;-147.20;100.00;58430.41;5094569;28;20048;-9
2021/09/07 01:35:39;;;;;;;2.90;2.60;;;22.50;51.60;;;-147.20;100.00;58430.41;5094770;28;20082;-9
2021/09/07 01:38:06;;;;;;;3.10;2.60;;;22.50;51.60;;;-147.20;100.00;58430.41;5094256;28;20047;-9
2021/09/07 01:40:32;;;;;;;2.80;2.50;;;22.50;51.70;;;-147.20;100.00;58430.41;5093999;28;20048;-9
2021/09/07 01:42:57;;;;;;;4.30;2.80;;;22.50;51.70;;;-147.20;100.00;58430.41;5094046;28;20088;-9
2021/09/07 01:45:23;;;;;;;3.28;2.80;;;22.50;51.60;;;-147.20;100.00;58430.41;5094037;28;20172;-9
2021/09/07 01:47:50;;;;;;;3.17;2.65;;;22.50;51.70;;;-147.20;100.00;58430.41;5094136;28;20450;-9
2021/09/07 01:50:17;;;;;;;3.17;2.67;;;22.50;51.70;;;-147.20;100.00;58430.41;5093930;28;20052;-9
2021/09/07 01:52:43;;;;;;;3.15;2.63;;;22.50;51.60;;;-147.20;100.00;58430.41;5094223;28;20517;-9
2021/09/07 01:55:09;;;;;;;2.85;2.42;;;22.50;51.70;;;-147.20;100.00;58430.41;5093874;28;20060;-9
2021/09/07 01:57:35;;;;;;;2.90;2.60;;;22.50;51.60;;;-147.20;100.00;58430.41;5093866;28;20172;-9
2021/09/07 02:00:04;;;;;;;2.60;2.40;;;22.50;51.70;;;-147.20;100.00;58430.41;5093683;28;20048;-9
2021/09/07 02:02:39;;;;;;;3.13;2.83;;;22.50;51.70;;;-147.20;100.00;58430.41;5093858;28;20105;-9
2021/09/07 02:05:06;;;;;;;2.75;2.55;;;22.50;51.70;;;-147.20;100.00;58430.41;5093825;28;20056;-9
2021/09/07 02:07:34;;;;;;;3.22;2.85;;;22.50;51.70;;;-147.20;100.00;58430.41;5094256;28;20047;-9
2021/09/07 02:09:59;;;;;;;2.85;2.55;;;22.50;51.70;;;-147.20;100.00;58430.41;5075531;28;20056;-9
2021/09/07 02:12:25;;;;;;;2.97;2.58;;;22.50;51.70;;;-147.20;100.00;58430.41;5093622;28;20044;-9
2021/09/07 02:14:53;;;;;;;2.33;2.13;;;22.50;52.30;;;-147.20;100.00;58430.41;5093625;28;20044;-9
2021/09/07 02:17:20;;;;;;;2.50;2.30;;;22.50;51.70;;;-147.20;100.00;58430.41;5093632;28;20386;-9
2021/09/07 02:19:46;;;;;;;2.80;2.50;;;22.50;51.70;;;-147.20;100.00;58430.41;5075418;28;20054;-9
2021/09/07 02:22:15;;;;;;;2.85;2.63;;;22.50;51.70;;;-147.20;100.00;58430.41;5093570;28;20047;-9
2021/09/07 02:24:41;;;;;;;2.70;2.30;;;22.50;51.70;;;-147.20;100.00;58430.41;5093392;28;20048;-9
2021/09/07 02:27:07;;;;;;;3.00;2.60;;;22.50;51.70;;;-147.20;100.00;58430.41;5093575;28;21274;-9
2021/09/07 02:29:34;;;;;;;2.85;2.55;;;22.50;51.70;;;-147.20;100.00;58430.41;5093467;28;20055;-9
2021/09/07 02:32:00;;;;;;;2.75;2.47;;;22.50;51.80;;;-147.20;100.00;58430.41;5092826;28;20055;-9
2021/09/07 02:34:26;;;;;;;3.33;3.03;;;22.50;51.80;;;-147.20;100.00;58430.41;5093252;28;20048;-9
2021/09/07 02:36:52;;;;;;;3.13;2.55;;;22.40;51.70;;;-147.20;100.00;58430.41;5093566;28;20056;-9
2021/09/07 02:39:19;;;;;;;2.80;2.58;;;22.40;51.80;;;-147.20;100.00;58430.41;5093360;28;20043;-9
2021/09/07 02:41:45;;;;;;;2.88;2.58;;;22.40;51.80;;;-147.20;100.00;58430.41;5093512;28;20121;-9
2021/09/07 02:44:12;;;;;;;2.78;2.58;;;22.40;51.80;;;-147.20;100.00;58430.41;5093079;28;20044;-9
2021/09/07 02:46:38;;;;;;;2.83;2.45;;;22.40;51.80;;;-147.20;100.00;58430.41;5093322;28;20052;-9
2021/09/07 02:49:04;;;;;;;2.80;2.50;;;22.40;51.80;;;-147.20;100.00;58430.41;5093105;28;20044;-9
2021/09/07 02:51:32;;;;;;;2.92;2.65;;;22.40;51.80;;;-147.20;100.00;58430.41;5093132;28;20044;-9
2021/09/07 02:53:58;;;;;;;3.00;2.70;;;22.40;51.80;;;-147.20;100.00;58430.41;5093501;28;20359;-9
2021/09/07 02:56:24;;;;;;;3.70;2.65;;;22.40;51.80;;;-147.20;100.00;58430.41;5092816;28;20126;-9
2021/09/07 02:58:50;;;;;;;3.60;2.90;;;22.40;51.80;;;-147.20;100.00;58430.41;5092818;28;20051;-9
2021/09/07 03:01:16;;;;;;;2.70;2.47;;;22.40;51.80;;;-147.20;100.00;58430.41;5093593;28;20393;-9
2021/09/07 03:03:46;;;;;;;2.50;2.30;;;22.40;51.80;;;-147.20;100.00;58430.41;5093379;28;20052;-9
2021/09/07 03:06:12;;;;;;;2.65;2.45;;;22.40;51.80;;;-147.20;100.00;58430.41;5074353;28;20061;-9
2021/09/07 03:08:39;;;;;;;2.42;2.22;;;22.40;51.80;;;-147.20;100.00;58430.41;5093338;28;20482;-9
2021/09/07 03:11:05;;;;;;;2.88;2.58;;;22.40;51.80;;;-147.20;100.00;58430.41;5092737;28;20048;-9
2021/09/07 03:13:31;;;;;;;2.83;2.63;;;22.40;51.80;;;-147.20;100.00;58430.41;5092750;28;20408;-9
2021/09/07 03:15:56;;;;;;;2.50;2.30;;;22.40;51.80;;;-147.20;100.00;58430.41;5092225;28;20131;-10
2021/09/07 03:18:23;;;;;;;2.50;2.30;;;22.40;52.40;;;-147.20;100.00;58430.41;5092816;28;20123;-9
2021/09/07 03:20:50;;;;;;;2.90;2.60;;;22.40;51.80;;;-147.20;100.00;58430.41;5074988;28;20141;-9
2021/09/07 03:23:16;;;;;;;3.30;2.53;;;22.40;51.80;;;-147.20;100.00;58430.41;5092973;28;20549;-9
2021/09/07 03:25:42;;;;;;;2.60;2.40;;;22.40;51.90;;;-147.20;100.00;58430.41;5092456;28;20087;-9
2021/09/07 03:28:11;;;;;;;2.60;2.40;;;22.40;51.90;;;-147.20;100.00;58430.41;5092555;28;20047;-9
2021/09/07 03:30:39;;;;;;;2.88;2.67;;;22.40;51.90;;;-147.20;100.00;58430.41;5092558;28;20486;-9
2021/09/07 03:33:06;;;;;;;2.55;2.15;;;22.40;51.90;;;-147.20;100.00;58430.41;5092429;28;20053;-9
2021/09/07 03:35:32;;;;;;;3.15;2.72;;;22.40;51.90;;;-147.20;100.00;58430.41;5092406;28;20056;-9
2021/09/07 03:37:58;;;;;;;3.03;2.50;;;22.40;51.90;;;-147.20;100.00;58430.41;5092332;28;20048;-9
2021/09/07 03:40:24;;;;;;;3.03;2.72;;;22.40;51.90;;;-147.20;100.00;58430.41;5092387;28;20071;-9
2021/09/07 03:42:51;;;;;;;2.92;2.58;;;22.40;51.90;;;-147.20;100.00;58430.41;5092294;28;20094;-9
2021/09/07 03:45:18;;;;;;;2.90;2.60;;;22.40;51.90;;;-147.20;100.00;58430.41;5095100;28;20205;-9
2021/09/07 03:47:48;;;;;;;2.40;2.20;;;22.40;51.90;;;-147.20;100.00;58430.41;5095664;28;20382;-9
2021/09/07 03:50:15;;;;;;;2.42;2.22;;;22.40;51.90;;;-147.20;100.00;58430.41;5095817;28;20044;-9
2021/09/07 03:52:41;;;;;;;2.63;2.42;;;22.40;51.90;;;-147.20;100.00;58430.41;5095920;28;20044;-10
2021/09/07 03:55:11;;;;;;;2.88;2.55;;;22.40;52.00;;;-147.20;100.00;58430.41;5095785;28;20105;-9
2021/09/07 03:57:38;;;;;;;3.10;2.72;;;22.40;51.90;;;-147.20;100.00;58430.41;5095680;28;20055;-9
2021/09/07 04:00:05;;;;;;;2.78;2.22;;;22.40;52.00;;;-147.20;100.00;58430.41;5096271;28;20121;-9
2021/09/07 04:02:39;;;;;;;2.80;2.53;;;22.40;52.00;;;-147.20;100.00;58430.41;5095712;28;20090;-9
2021/09/07 04:05:06;;;;;;;2.83;2.53;;;22.40;52.00;;;-147.20;100.00;58430.41;5095641;28;20101;-9
2021/09/07 04:07:33;;;;;;;2.90;2.65;;;22.40;52.00;;;-147.20;100.00;58430.41;5095580;28;20148;-9
2021/09/07 04:10:00;;;;;;;2.88;2.58;;;22.40;52.00;;;-147.20;100.00;58430.41;5096149;28;20044;-9
2021/09/07 04:12:26;;;;;;;2.65;2.40;;;22.40;52.00;;;-147.20;100.00;58430.41;5095537;28;20044;-9
2021/09/07 04:14:52;;;;;;;2.70;2.28;;;22.40;52.00;;;-147.20;100.00;58430.41;5095548;28;20135;-9
2021/09/07 04:17:18;;;;;;;3.67;2.47;;;22.40;52.00;;;-147.20;100.00;58430.41;5095357;28;20059;-9
2021/09/07 04:19:44;;;;;;;2.50;2.30;;;22.40;52.00;;;-147.20;100.00;58430.41;5076742;28;20086;-9
2021/09/07 04:22:11;;;;;;;2.67;2.30;;;22.40;52.00;;;-147.20;100.00;58430.41;5095990;28;20067;-9
2021/09/07 04:24:37;;;;;;;2.60;2.40;;;22.30;52.00;;;-147.20;100.00;58430.41;5095383;28;20461;-9
2021/09/07 04:27:03;;;;;;;2.65;2.45;;;22.40;52.00;;;-147.20;100.00;58430.41;5094457;28;20044;-9
2021/09/07 04:29:28;;;;;;;2.75;2.50;;;22.40;52.00;;;-147.20;100.00;58430.41;5095261;28;20048;-9
2021/09/07 04:31:54;;;;;;;3.03;2.60;;;22.30;51.90;;;-147.20;100.00;58430.41;5095335;28;20050;-9
2021/09/07 04:34:20;;;;;;;3.08;2.72;;;22.30;52.00;;;-147.20;100.00;58430.41;5095296;28;20497;-9
2021/09/07 04:36:46;;;;;;;2.53;2.33;;;22.30;51.90;;;-147.20;100.00;58430.41;5095485;28;20052;-9
2021/09/07 04:39:12;;;;;;;3.33;2.70;;;22.40;52.00;;;-147.20;100.00;58430.41;5095163;28;20093;-9
2021/09/07 04:41:37;;;;;;;2.30;2.10;;;22.30;51.90;;;-147.20;100.00;58430.41;5095591;28;20048;-9
2021/09/07 04:44:04;;;;;;;2.60;2.40;;;22.30;52.00;;;-147.20;100.00;58430.41;5095365;28;20048;-9
2021/09/07 04:46:30;;;;;;;2.60;2.33;;;22.40;52.00;;;-147.20;100.00;58430.41;5094808;28;20052;-9
2021/09/07 04:48:56;;;;;;;2.88;2.55;;;22.40;52.00;;;-147.20;100.00;58430.41;5095264;28;20417;-9
2021/09/07 04:51:23;;;;;;;3.08;2.38;;;22.40;52.00;;;-147.20;100.00;58430.41;5095079;28;20436;-9
2021/09/07 04:53:50;;;;;;;2.83;2.30;;;22.40;52.00;;;-147.20;100.00;58430.41;5095154;28;20127;-9
2021/09/07 04:56:17;;;;;;;2.95;2.65;;;22.40;51.90;;;-147.20;100.00;58430.41;5094378;28;20047;-9
2021/09/07 04:58:43;;;;;;;2.65;2.45;;;22.40;51.90;;;-147.20;100.00;58430.41;5094838;28;20375;-9
2021/09/07 05:01:09;;;;;;;2.40;2.20;;;22.40;51.80;;;-147.20;100.00;58430.41;5095141;28;20093;-9
2021/09/07 05:03:35;;;;;;;2.38;2.17;;;22.40;51.80;;;-147.20;100.00;58430.41;5094805;28;20117;-9
2021/09/07 05:06:01;;;;;;;2.92;2.63;;;22.50;51.70;;;-147.20;100.00;58430.41;5094836;28;20047;-9
2021/09/07 05:08:27;;;;;;;2.35;2.15;;;22.50;51.70;;;-147.20;100.00;58430.41;5094596;28;20044;-10
2021/09/07 05:10:53;;;;;;;2.50;2.28;;;22.50;51.70;;;-147.20;100.00;58430.41;5094678;28;20093;-9
2021/09/07 05:13:19;;;;;;;2.45;2.20;;;22.50;51.60;;;-147.20;100.00;58430.41;5094688;28;20044;-9
2021/09/07 05:15:45;;;;;;;2.40;2.17;;;22.50;51.50;;;-147.20;100.00;58430.41;5094532;28;20383;-9
2021/09/07 05:18:12;;;;;;;2.58;2.38;;;22.50;51.50;;;-147.20;100.00;58430.41;5094815;28;20466;-9
2021/09/07 05:20:39;;;;;;;2.30;2.08;;;22.50;51.50;;;-147.20;100.00;58430.41;5094363;28;20516;-9
2021/09/07 05:23:04;;;;;;;2.90;2.67;;;22.50;51.50;;;-147.20;100.00;58430.41;5094727;28;20044;-9
2021/09/07 05:25:30;;;;;;;2.67;2.45;;;22.50;51.50;;;-147.20;100.00;58430.41;5094454;28;20543;-9
2021/09/07 05:27:57;;;;;;;2.78;2.53;;;22.50;51.50;;;-147.20;100.00;58430.41;5094513;28;20082;-10
2021/09/07 05:30:23;;;;;;;2.60;2.40;;;22.60;51.50;;;-147.20;100.00;58430.41;5094243;28;20052;-9
2021/09/07 05:32:49;;;;;;;2.50;2.30;;;22.60;51.40;;;-147.20;100.00;58430.41;5094066;28;20052;-9
2021/09/07 05:35:15;;;;;;;2.55;2.33;;;22.60;51.30;;;-147.20;100.00;58430.41;5094077;28;20048;-9
2021/09/07 05:37:41;;;;;;;2.97;2.50;;;22.70;51.20;;;-147.20;100.00;58430.41;5094073;28;20108;-9
2021/09/07 05:40:14;;;;;;;2.92;2.40;;;22.70;51.10;;;-147.20;100.00;58430.41;5094615;28;20048;-9
2021/09/07 05:42:43;;;;;;;3.45;2.63;;;22.80;51.00;;;-147.20;100.00;58430.41;5093933;28;20056;-9
2021/09/07 05:45:15;;;;;;;2.50;2.08;;;22.90;50.90;;;-147.20;100.00;58430.41;5093938;28;20056;-9
2021/09/07 05:47:42;;;;;;;2.40;2.20;;;22.90;50.80;;;-147.20;100.00;58430.41;5075107;28;20164;-9
2021/09/07 05:50:08;;;;;;;2.40;2.10;;;22.90;50.80;;;-147.20;100.00;58430.41;5093733;28;20093;-9
2021/09/07 05:52:34;;;;;;;1.83;1.67;;;22.90;50.70;;;-147.20;100.00;58430.41;5094377;28;20059;-9
2021/09/07 05:55:00;;;;;;;2.35;2.15;;;23.00;50.60;;;-147.20;100.00;58430.41;5093935;28;20044;-9
2021/09/07 05:57:26;;;;;;;2.22;2.03;;;23.00;50.60;;;-147.20;100.00;58430.41;5093909;28;20079;-9
2021/09/07 05:59:54;;;;;;;2.60;2.05;;;23.00;50.50;;;-147.20;100.00;58430.41;5094169;28;20048;-9
2021/09/07 06:02:21;;;;;;;2.58;2.35;;;23.10;50.40;;;-147.20;100.00;58430.41;5093861;28;20041;-9
2021/09/07 06:04:48;;;;;;;2.47;2.22;;;23.20;50.30;;;-147.20;100.00;58430.41;5092759;28;20060;-9
2021/09/07 06:07:13;;;;;;;2.30;2.10;;;23.20;50.10;;;-147.20;100.00;58430.41;5092565;28;20482;-9
2021/09/07 06:09:39;;;;;;;2.53;2.20;;;23.30;50.00;;;-147.20;100.00;58430.41;5093664;28;20165;-9
2021/09/07 06:12:05;;;;;;;2.63;1.98;;;23.40;49.80;;;-147.20;100.00;58430.41;5093972;28;20044;-9
2021/09/07 06:14:33;;;;;;;2.30;2.10;;;23.50;49.60;;;-147.20;100.00;58430.41;5093577;28;20040;-9
2021/09/07 06:17:02;;;;;;;2.60;2.25;;;23.50;49.40;;;-147.20;100.00;58430.41;5093492;28;20048;-9
2021/09/07 06:19:28;;;;;;;2.90;2.42;;;23.70;49.30;;;-147.20;100.00;58430.41;5093286;28;20070;-9
2021/09/07 06:21:53;;;;;;;2.30;2.10;;;23.80;49.00;;;-147.20;100.00;58430.41;5093419;28;20047;-9
2021/09/07 06:24:19;;;;;;;2.05;1.80;;;23.90;48.80;;;-147.20;100.00;58430.41;5093749;28;20044;-9
2021/09/07 06:26:45;;;;;;;2.45;2.20;;;24.00;48.60;;;-147.20;100.00;58430.41;5093489;28;20444;-10
2021/09/07 06:29:11;;;;;;;2.42;2.20;;;24.10;48.50;;;-147.20;100.00;58430.41;5093379;28;20051;-9
2021/09/07 06:31:37;;;;;;;2.60;2.40;;;24.00;48.50;;;-147.20;100.00;58430.41;5093561;28;20093;-9
2021/09/07 06:34:03;;;;;;;2.28;2.00;;;24.00;48.60;;;-147.20;100.00;58430.41;5093256;28;20086;-9
2021/09/07 06:36:29;;;;;;;2.60;2.15;;;23.90;48.70;;;-147.20;100.00;58430.41;5093287;28;20119;-9
2021/09/07 06:38:55;;;;;;;3.00;2.40;;;23.80;48.70;;;-147.20;100.00;58430.41;5093124;28;20131;-9
2021/09/07 06:41:22;;;;;;;2.50;2.10;;;23.80;48.80;;;-147.20;100.00;58430.41;5093179;28;20048;-9
2021/09/07 06:43:48;;;;;;;3.05;2.60;;;23.80;48.80;;;-147.20;100.00;58430.41;5093359;28;20044;-9
2021/09/07 06:46:13;;;;;;;3.72;2.15;;;23.80;48.90;;;-147.20;100.00;58430.41;5093051;28;20049;-9
2021/09/07 06:48:39;;;;;;;2.47;2.17;;;23.70;49.00;;;-147.20;100.00;58430.41;5093014;28;20048;-9
2021/09/07 06:51:05;;;;;;;2.40;2.20;;;23.70;49.00;;;-147.20;100.00;58430.41;5093322;28;20048;-9
2021/09/07 06:53:31;;;;;;;2.30;2.10;;;23.80;48.90;;;-147.20;100.00;58430.41;5092947;28;20092;-9
2021/09/07 06:55:57;;;;;;;2.72;2.35;;;23.90;48.90;;;-147.20;100.00;58430.41;5093226;28;20048;-9
2021/09/07 06:58:23;;;;;;;2.50;2.25;;;23.90;48.80;;;-147.20;100.00;58430.41;5093212;28;20082;-9
2021/09/07 07:00:49;;;;;;;2.00;1.80;;;24.00;48.60;;;-147.20;100.00;58430.41;5092886;28;20136;-9
2021/09/07 07:03:16;;;;;;;2.50;2.30;;;24.00;48.60;;;-147.20;100.00;58430.41;5092808;28;20055;-9
2021/09/07 07:05:43;;;;;;;2.50;2.30;;;24.10;48.40;;;-147.20;100.00;58430.41;5092812;28;20131;-9
2021/09/07 07:08:08;;;;;;;2.30;2.05;;;24.10;48.50;;;-147.20;100.00;58430.41;5092722;28;20054;-9
2021/09/07 07:10:35;;;;;;;2.78;2.45;;;24.10;48.50;;;-147.20;100.00;58430.41;5093398;28;20048;-9
2021/09/07 07:13:02;;;;;;;2.33;2.10;;;24.00;48.70;;;-147.20;100.00;58430.41;5092809;28;20054;-9
2021/09/07 07:15:28;;;;;;;2.92;2.40;;;23.90;48.70;;;-147.20;100.00;58430.41;5092512;28;20615;-9
2021/09/07 07:17:54;;;;;;;2.85;2.40;;;23.90;48.80;;;-147.20;100.00;58430.41;5092103;28;20056;-9
2021/09/07 07:20:20;;;;;;;2.35;2.15;;;23.80;48.80;;;-147.20;100.00;58430.41;5092194;28;20076;-9
2021/09/07 07:22:46;;;;;;;2.67;2.17;;;23.80;48.90;;;-147.20;100.00;58430.41;5090347;28;20513;-9
2021/09/07 07:25:12;;;;;;;3.70;2.40;;;23.80;49.00;;;-147.20;100.00;58430.41;5089694;28;20064;-9
2021/09/07 07:27:41;;;;;;;3.38;2.33;;;23.90;48.80;;;-147.20;100.00;58430.41;5092674;28;20044;-9
2021/09/07 07:30:08;;;;;;;3.90;2.42;;;24.00;48.60;;;-147.20;100.00;58430.41;5092107;28;20082;-9
2021/09/07 07:32:34;;;;;;;2.65;2.42;;;24.10;48.50;;;-147.20;100.00;58430.41;5092306;28;20048;-9
2021/09/07 07:35:01;;;;;;;2.97;2.30;;;24.10;48.40;;;-147.20;100.00;58430.41;5092425;28;20071;-9
2021/09/07 07:37:27;;;;;;;3.45;2.33;;;24.10;48.40;;;-147.20;100.00;58430.41;5092483;28;20105;-9
2021/09/07 07:39:53;;;;;;;2.90;2.42;;;24.10;48.30;;;-147.20;100.00;58430.41;5092236;28;20072;-9
2021/09/07 07:42:19;;;;;;;3.63;2.38;;;24.20;48.30;;;-147.20;100.00;58430.41;5092382;28;20044;-9
2021/09/07 07:44:45;;;;;;;2.60;2.28;;;24.20;48.20;;;-147.20;100.00;58430.41;5092255;28;20051;-9
2021/09/07 07:47:11;;;;;;;3.22;2.30;;;24.30;48.20;;;-147.20;100.00;58430.41;5092185;28;20136;-9
2021/09/07 07:49:38;;;;;;;2.20;2.00;;;24.20;48.10;;;-147.20;100.00;58430.41;5092265;28;20075;-9
2021/09/07 07:52:04;;;;;;;2.72;2.35;;;24.30;48.10;;;-147.20;100.00;58430.41;5092522;28;20580;-9
2021/09/07 07:54:30;;;;;;;4.15;2.10;;;24.30;48.10;;;-147.20;100.00;58430.41;5092631;28;20044;-9
2021/09/07 07:56:55;;;;;;;2.58;2.35;;;24.30;48.00;;;-147.20;100.00;58430.41;5092156;28;20444;-9
2021/09/07 07:59:21;;;;;;;3.83;2.58;;;24.30;48.00;;;-147.20;100.00;58430.41;5092093;28;20405;-9
2021/09/07 08:01:47;;;;;;;2.90;2.30;;;24.40;48.00;;;-147.20;100.00;58430.41;5092389;28;20436;-9
2021/09/07 08:04:13;;;;;;;2.38;2.17;;;24.40;47.90;;;-147.20;100.00;58430.41;5092032;28;20085;-9
2021/09/07 08:06:40;;;;;;;2.50;2.30;;;24.40;47.90;;;-147.20;100.00;58430.41;5091987;28;20105;-9
2021/09/07 08:09:06;;;;;;;2.80;2.00;;;24.40;47.90;;;-147.20;100.00;58430.41;5092409;28;20044;-9
2021/09/07 08:11:32;;;;;;;3.30;2.17;;;24.40;47.80;;;-147.20;100.00;58430.41;5092536;28;20067;-9
2021/09/07 08:13:58;;;;;;;2.30;2.10;;;24.40;48.00;;;-147.20;100.00;58430.41;5092289;28;20136;-9
2021/09/07 08:16:24;;;;;;;2.60;2.38;;;24.30;48.00;;;-147.20;100.00;58430.41;5092168;28;20055;-9
2021/09/07 08:18:50;;;;;;;2.65;2.28;;;24.20;48.10;;;-147.20;100.00;58430.41;5072152;28;20064;-9
2021/09/07 08:21:16;;;;;;;3.50;2.30;;;24.30;48.30;;;-147.20;100.00;58430.41;5087591;28;20047;-9
2021/09/07 08:23:42;;;;;;;2.88;2.08;;;24.30;48.20;;;-147.20;100.00;58430.41;5092460;28;20052;-9
2021/09/07 08:26:07;;;;;;;3.60;2.42;;;24.20;48.20;;;-147.20;100.00;58430.41;5073834;28;20223;-9
2021/09/07 08:28:33;;;;;;;2.53;2.33;;;24.20;48.30;;;-147.20;100.00;58430.41;5091678;28;20127;-10
2021/09/07 08:30:59;;;;;;;4.25;2.60;;;24.20;48.40;;;-147.20;100.00;58430.41;5094073;28;20047;-9
2021/09/07 08:33:25;;;;;;;3.03;2.20;;;24.10;48.50;;;-147.20;100.00;58430.41;5095405;28;20048;-9
2021/09/07 08:35:50;;;;;;;3.03;2.20;;;24.10;48.50;;;-147.20;100.00;58430.41;5095054;28;20074;-9
2021/09/07 08:38:16;;;;;;;4.07;2.40;;;24.10;48.70;;;-147.20;100.00;58430.41;5095030;28;20456;-10
2021/09/07 08:40:42;;;;;;;3.55;2.67;;;24.00;48.70;;;-147.20;100.00;58430.41;5095594;28;20044;-9
2021/09/07 08:43:10;;;;;;;2.83;2.33;;;24.10;48.70;;;-147.20;100.00;58430.41;5095508;28;20043;-9
2021/09/07 08:45:39;;;;;;;3.30;2.30;;;24.10;48.70;;;-147.20;100.00;58430.41;5095534;28;20385;-9
2021/09/07 08:48:06;;;;;;;3.70;2.38;;;24.10;48.70;;;-147.20;100.00;58430.41;5094632;28;20059;-10
2021/09/07 08:50:32;;;;;;;4.70;2.58;;;24.10;48.70;;;-147.20;100.00;58430.41;5094880;28;20478;-10
2021/09/07 08:52:59;;;;;;;2.53;2.33;;;24.00;48.60;;;-147.20;100.00;58430.41;5094640;28;20048;-10
2021/09/07 08:55:30;;;;;;;3.05;2.25;;;24.00;48.70;;;-147.20;100.00;58430.41;5094677;28;20051;-10
2021/09/07 08:57:56;;;;;;;4.28;2.20;;;24.00;48.70;;;-147.20;100.00;58430.41;5094631;28;20059;-10
2021/09/07 09:00:29;;;;;;;2.83;2.13;;;24.00;48.80;;;-147.20;100.00;58430.41;5094451;28;20055;-10
2021/09/07 09:02:56;;;;;;;3.75;2.22;;;24.00;48.80;;;-147.20;100.00;58430.41;5092933;28;20052;-10
2021/09/07 09:05:28;;;;;;;3.95;2.17;;;23.90;48.80;;;-147.20;100.00;58430.41;5094730;28;20056;-10
2021/09/07 09:07:58;;;;;;;3.13;2.35;;;23.90;48.90;;;-147.20;100.00;58430.41;5094250;28;20067;-10
2021/09/07 09:10:25;;;;;;;2.75;2.10;;;23.90;48.90;;;-147.20;100.00;58430.41;5094293;28;20494;-10
2021/09/07 09:13:12;;;;;;;4.10;2.53;;;23.90;49.00;;;-147.20;100.00;58430.41;5094163;28;20489;-10
2021/09/07 09:15:40;;;;;;;5.03;2.60;;;23.90;49.10;;;-147.20;100.00;58430.41;5094539;28;20053;-11
2021/09/07 09:18:11;;;;;;;3.53;2.65;;;23.90;49.00;;;-147.20;100.00;58430.41;5094726;28;20469;-10
2021/09/07 09:20:40;;;;;;;3.05;2.20;;;23.90;49.10;;;-147.20;100.00;58430.41;5094529;28;20044;-9
2021/09/07 09:23:09;;;;;;;3.78;2.60;;;23.90;49.00;;;-147.20;100.00;58430.41;5094766;28;20044;-10
2021/09/07 09:25:42;;;;;;;3.47;2.90;;;23.90;49.00;;;-147.20;100.00;58430.41;5094394;28;20047;-10
2021/09/07 09:28:21;;;;;;;4.03;2.58;;;23.90;49.10;;;-147.20;100.00;58430.41;5094817;28;20052;-10
2021/09/07 09:30:54;;;;;;;2.78;2.22;;;23.90;49.10;;;-147.20;100.00;58430.41;5094260;28;20121;-10
2021/09/07 09:33:25;;;;;;;3.10;2.20;;;23.80;49.10;;;-147.20;100.00;58430.41;5094547;28;20489;-10
2021/09/07 09:35:58;;;;;;;2.95;2.10;;;23.80;49.10;;;-147.20;100.00;58430.41;5094338;28;20155;-10
2021/09/07 09:38:34;;;;;;;3.65;2.35;;;23.80;49.10;;;-147.20;100.00;58430.41;5094449;28;20044;-10
2021/09/07 09:41:07;;;;;;;5.70;2.63;;;23.80;49.10;;;-147.20;100.00;58430.41;5094115;28;20048;-10
2021/09/07 09:43:43;;;;;;;3.58;2.30;;;23.80;49.10;;;-147.20;100.00;58430.41;5093842;28;20048;-10
2021/09/07 09:46:22;;;;;;;2.90;2.50;;;23.80;49.10;;;-147.20;100.00;58430.41;5094077;28;20048;-10
2021/09/07 09:48:49;;;;;;;3.58;2.38;;;23.80;49.10;;;-147.20;100.00;58430.41;5094023;28;20048;-10
2021/09/07 09:51:20;;;;;;;2.55;2.35;;;23.80;49.10;;;-147.20;100.00;58430.41;5094075;28;20044;-10
2021/09/07 09:53:49;;;;;;;4.68;2.33;;;23.80;49.10;;;-147.20;100.00;58430.41;5094383;28;20052;-9
2021/09/07 09:56:16;;;;;;;3.22;2.15;;;23.80;49.10;;;-147.20;100.00;58430.41;5093851;28;20052;-9
2021/09/07 09:58:42;;;;;;;3.10;2.22;;;23.80;49.10;;;-147.20;100.00;58430.41;5093843;28;20122;-9
2021/09/07 10:01:08;;;;;;;3.80;2.63;;;23.80;49.10;;;-147.20;100.00;58430.41;5075603;28;20036;-9
2021/09/07 10:03:38;;;;;;;4.25;2.38;;;23.80;49.10;;;-147.20;100.00;58430.41;5093848;28;20052;-9